Time;durP1;ratioP1;P1;durP2;ratioP2;P2;SDS_P1;SDS_P2;PMS_P1;PMS_P2;Temp;Humidity;BMP_temperature;BMP_pressure;BME280_temperature;BME280_humidity;BME280_pressure;Samples;Min_cycle;Max_cycle;Signal;HPM_P1;HPM_P2
2022/12/28 00:01:24;;;;;;;9.30;3.02;;;;;;;2.82;74.00;99656.41;1791617;79;20919;-40
2022/12/28 00:03:52;;;;;;;10.58;3.77;;;;;;;2.82;74.03;99653.73;1791051;79;21559;-40
2022/12/28 00:06:20;;;;;;;10.60;3.37;;;;;;;2.80;74.16;99666.64;1791637;79;21009;-40
2022/12/28 00:08:47;;;;;;;11.53;3.52;;;;;;;2.76;74.36;99660.28;1791570;80;21078;-40
2022/12/28 00:11:17;;;;;;;9.10;3.40;;;;;;;2.71;74.61;99657.70;1791473;80;21233;-40
2022/12/28 00:13:44;;;;;;;12.23;3.47;;;;;;;2.71;74.79;99656.38;1791783;79;20981;-40
2022/12/28 00:16:35;;;;;;;10.50;3.27;;;;;;;2.77;74.77;99659.19;1791817;80;21082;-40
2022/12/28 00:19:05;;;;;;;13.98;3.33;;;;;;;2.81;74.87;99661.51;1791617;80;20942;-40
2022/12/28 00:21:33;;;;;;;9.38;3.62;;;;;;;2.81;75.00;99665.52;1791835;80;21057;-40
2022/12/28 00:24:00;;;;;;;10.68;3.47;;;;;;;2.84;74.99;99666.28;1791780;80;21220;-40
2022/12/28 00:26:29;;;;;;;10.43;3.90;;;;;;;2.85;74.98;99668.42;1791603;80;20915;-40
2022/12/28 00:28:56;;;;;;;10.53;3.37;;;;;;;2.88;74.93;99669.94;1791909;79;21010;-40
2022/12/28 00:31:22;;;;;;;11.20;3.87;;;;;;;2.94;74.92;99668.75;1791569;80;21020;-40
2022/12/28 00:33:49;;;;;;;10.00;3.37;;;;;;;2.97;74.74;99674.83;1791813;79;21089;-40
2022/12/28 00:36:16;;;;;;;10.72;4.08;;;;;;;2.97;74.83;99668.67;1791573;80;21164;-40
2022/12/28 00:38:43;;;;;;;8.95;3.60;;;;;;;2.97;74.96;99662.77;1791514;79;21014;-40
2022/12/28 00:41:10;;;;;;;11.55;4.12;;;;;;;2.94;74.96;99675.98;1791535;79;21022;-40
2022/12/28 00:43:37;;;;;;;9.60;3.62;;;;;;;2.95;74.95;99672.98;1791264;79;21464;-40
2022/12/28 00:46:05;;;;;;;12.50;3.90;;;;;;;3.01;74.99;99669.11;1791553;80;21025;-40
2022/12/28 00:48:33;;;;;;;13.35;3.77;;;;;;;3.06;74.97;99672.22;1787664;79;21133;-40
2022/12/28 00:51:08;;;;;;;11.90;4.35;;;;;;;3.08;75.03;99673.27;1783010;80;20967;-40
2022/12/28 00:53:34;;;;;;;9.30;3.80;;;;;;;3.06;74.93;99676.23;1782700;80;21590;-40
2022/12/28 00:56:14;;;;;;;11.22;3.83;;;;;;;3.00;75.06;99676.13;1783107;80;20995;-40
2022/12/28 00:58:41;;;;;;;10.50;3.75;;;;;;;2.98;75.29;99688.47;1783113;80;21027;-40
2022/12/28 01:01:17;;;;;;;12.15;4.03;;;;;;;3.04;75.25;99679.78;1783169;80;21129;-40
2022/12/28 01:03:45;;;;;;;14.47;4.03;;;;;;;3.00;75.27;99677.47;1782963;80;20997;-40
2022/12/28 01:06:15;;;;;;;9.83;4.22;;;;;;;2.96;75.48;99689.30;1783026;80;21014;-40
2022/12/28 01:08:42;;;;;;;16.90;4.05;;;;;;;2.93;75.54;99681.88;1783049;80;21283;-40
2022/12/28 01:11:20;;;;;;;15.45;4.28;;;;;;;2.93;75.62;99689.91;1783273;80;21599;-40
2022/12/28 01:13:48;;;;;;;14.50;5.03;;;;;;;2.99;75.54;99686.05;1783503;80;21111;-40
2022/12/28 01:16:18;;;;;;;10.75;4.42;;;;;;;3.02;75.50;99688.11;1782898;80;21006;-40
2022/12/28 01:18:48;;;;;;;9.43;3.55;;;;;;;2.99;75.53;99683.91;1783063;80;21097;-40
2022/12/28 01:21:17;;;;;;;9.28;4.83;;;;;;;2.97;75.60;99685.54;1782988;80;21042;-40
2022/12/28 01:23:45;;;;;;;9.07;3.73;;;;;;;3.02;75.28;99685.43;1783418;80;21002;-40
2022/12/28 01:26:12;;;;;;;8.90;3.87;;;;;;;3.02;75.28;99685.43;1783140;80;21870;-40
2022/12/28 01:28:39;;;;;;;10.88;3.60;;;;;;;3.10;75.30;99684.48;1782830;80;20963;-40
2022/12/28 01:31:11;;;;;;;13.60;5.10;;;;;;;3.13;75.18;99687.89;1782997;80;21599;-40
2022/12/28 01:33:38;;;;;;;9.60;3.80;;;;;;;3.10;75.21;99689.27;1782918;80;21521;-40
2022/12/28 01:36:08;;;;;;;9.85;3.90;;;;;;;3.10;75.31;99691.18;1783221;80;21309;-40
2022/12/28 01:38:36;;;;;;;9.73;3.62;;;;;;;3.08;75.28;99684.78;1783566;80;21094;-40
2022/12/28 01:41:06;;;;;;;7.78;3.25;;;;;;;3.09;75.20;99681.02;1783121;80;21053;-40
2022/12/28 01:43:41;;;;;;;8.53;3.15;;;;;;;3.13;75.13;99682.53;1783853;80;20990;-40
2022/12/28 01:46:15;;;;;;;15.23;4.53;;;;;;;3.14;75.02;99684.12;1750631;80;21516;-40
2022/12/28 01:48:58;;;;;;;9.40;3.85;;;;;;;3.12;75.12;99690.31;1786875;79;21046;-40
2022/12/28 01:51:25;;;;;;;10.55;4.37;;;;;;;3.10;75.21;99687.16;1791717;79;21136;-40
2022/12/28 01:53:53;;;;;;;12.85;3.92;;;;;;;3.05;75.32;99690.17;1791716;80;20966;-40
2022/12/28 01:56:21;;;;;;;8.23;3.20;;;;;;;3.04;75.35;99696.64;1791843;79;21120;-40
2022/12/28 01:58:48;;;;;;;9.03;3.65;;;;;;;3.09;75.28;99695.74;1791748;80;20995;-40
2022/12/28 02:01:16;;;;;;;9.75;3.92;;;;;;;3.13;75.26;99691.91;1791876;79;21005;-40
2022/12/28 02:03:43;;;;;;;10.32;4.22;;;;;;;3.14;75.15;99697.52;1791727;79;22032;-40
2022/12/28 02:06:11;;;;;;;8.00;3.67;;;;;;;3.12;75.11;99692.45;1791885;80;20998;-40
2022/12/28 02:08:47;;;;;;;9.18;3.50;;;;;;;3.11;75.09;99694.08;1791631;79;21079;-40
2022/12/28 02:11:15;;;;;;;11.48;3.80;;;;;;;3.14;75.07;99692.16;1791533;79;21006;-40
2022/12/28 02:13:43;;;;;;;9.88;3.75;;;;;;;3.17;75.07;99690.20;1791512;79;21527;-40
2022/12/28 02:16:10;;;;;;;13.60;4.58;;;;;;;3.17;75.09;99700.92;1791810;79;21061;-40
2022/12/28 02:18:38;;;;;;;10.08;3.80;;;;;;;3.15;75.09;99697.19;1791421;80;20999;-40
2022/12/28 02:21:22;;;;;;;11.20;4.40;;;;;;;3.13;75.12;99692.70;1791501;80;21606;-40
2022/12/28 02:24:16;;;;;;;7.05;3.40;;;;;;;3.12;75.04;99704.50;1791467;80;21647;-40
2022/12/28 02:27:04;;;;;;;8.93;3.70;;;;;;;3.10;75.08;99701.32;1791478;79;20983;-40
2022/12/28 02:29:53;;;;;;;8.73;3.50;;;;;;;3.16;74.97;99696.65;1791535;80;21183;-40
2022/12/28 02:32:40;;;;;;;10.78;4.45;;;;;;;3.19;75.09;99698.74;1791579;80;20931;-40
2022/12/28 02:35:24;;;;;;;8.50;3.85;;;;;;;3.17;75.00;99699.03;1791731;80;21555;-40
2022/12/28 02:38:03;;;;;;;10.23;4.25;;;;;;;3.15;74.98;99702.55;1791524;80;21010;-40
2022/12/28 02:40:38;;;;;;;9.08;3.52;;;;;;;3.12;74.99;99705.05;1734971;80;21070;-40
2022/12/28 02:43:05;;;;;;;8.85;4.30;;;;;;;3.15;75.08;99713.84;1791581;80;23166;-40
2022/12/28 02:51:24;;;;;;;12.63;4.47;;;;;;;3.17;74.97;99715.66;1791851;80;20191;-40
2022/12/28 02:57:59;;;;;;;8.10;3.52;;;;;;;3.09;75.12;99720.39;1825844;78;23108;-40
2022/12/28 03:00:50;;;;;;;11.95;3.75;;;;;;;3.10;75.15;99724.09;1824916;78;20972;-40
2022/12/28 03:03:40;;;;;;;11.53;3.95;;;;;;;3.14;75.12;99731.00;1825243;78;21003;-40
2022/12/28 03:09:30;;;;;;;9.53;3.75;;;;;;;3.13;74.98;99722.70;1825659;78;21519;-40
2022/12/28 03:12:00;;;;;;;;;;;;;;;3.11;74.99;99732.38;1774377;78;21153;-40
2022/12/28 03:14:36;;;;;;;10.53;3.75;;;;;;;3.18;74.93;99736.00;1825215;78;20085;-40
2022/12/28 03:31:16;;;;;;;9.63;3.85;;;;;;;3.30;74.22;99737.05;1825543;78;20960;-40
2022/12/28 03:33:50;;;;;;;9.13;3.55;;;;;;;3.35;74.00;99740.95;1825216;78;20980;-40
2022/12/28 03:36:47;;;;;;;12.30;4.28;;;;;;;3.37;74.04;99739.33;1825813;78;21032;-40
2022/12/28 03:39:29;;;;;;;10.80;4.00;;;;;;;3.35;73.88;99744.17;1825802;78;22121;-40
2022/12/28 03:45:19;;;;;;;6.92;3.33;;;;;;;3.24;74.12;99745.52;1790977;78;20993;-40
2022/12/28 03:47:48;;;;;;;7.67;3.65;;;;;;;3.23;74.39;99745.27;1825765;78;20972;-40
2022/12/28 03:50:16;;;;;;;6.83;3.98;;;;;;;3.28;74.33;99747.83;1814750;78;21569;-40
2022/12/28 03:52:43;;;;;;;8.45;3.45;;;;;;;3.29;74.46;99754.78;1811028;79;21107;-40
2022/12/28 03:55:12;;;;;;;9.83;4.12;;;;;;;3.27;74.81;99756.42;1810781;79;20911;-40
2022/12/28 03:57:40;;;;;;;9.18;4.12;;;;;;;3.25;75.15;99745.73;1783937;79;21039;-40
2022/12/28 04:00:10;;;;;;;8.77;4.10;;;;;;;3.26;75.17;99754.83;1811125;79;21770;-40
2022/12/28 04:02:39;;;;;;;7.83;3.83;;;;;;;3.30;75.11;99752.33;1810335;79;21529;-40
2022/12/28 04:05:07;;;;;;;8.03;3.70;;;;;;;3.32;75.15;99762.21;1810886;79;23114;-40
2022/12/28 04:07:34;;;;;;;6.85;3.77;;;;;;;3.28;75.38;99763.91;1810711;79;21009;-40
2022/12/28 04:10:03;;;;;;;11.75;4.25;;;;;;;3.23;75.71;99764.02;1810968;79;21000;-40
2022/12/28 04:12:29;;;;;;;11.18;4.22;;;;;;;3.15;76.04;99762.06;1810928;79;20968;-40
2022/12/28 04:15:09;;;;;;;7.05;4.00;;;;;;;3.11;76.35;99763.73;1807865;79;20985;-40
2022/12/28 04:17:35;;;;;;;8.80;4.05;;;;;;;3.18;76.48;99768.14;1810902;79;21193;-40
2022/12/28 04:20:03;;;;;;;12.07;4.05;;;;;;;3.22;76.47;99769.92;1810797;79;20949;-40
2022/12/28 04:22:30;;;;;;;9.45;3.75;;;;;;;3.22;76.36;99774.48;1783893;79;21025;-40
2022/12/28 04:24:58;;;;;;;9.10;4.22;;;;;;;3.22;76.40;99771.27;1811007;79;20914;-40
2022/12/28 04:27:25;;;;;;;9.95;4.65;;;;;;;3.20;76.32;99772.09;1811054;79;21059;-40
2022/12/28 04:29:55;;;;;;;11.03;4.40;;;;;;;3.20;76.23;99771.30;1811032;79;21134;-40
2022/12/28 04:32:23;;;;;;;;;;;;;;;3.20;76.19;99777.45;1813683;79;20981;-40
2022/12/28 04:34:50;;;;;;;7.00;4.00;;;;;;;3.21;76.36;99777.70;1810869;79;20078;-40
2022/12/28 04:37:18;;;;;;;9.30;4.60;;;;;;;3.09;76.70;99781.45;1810709;79;21575;-40
2022/12/28 04:39:45;;;;;;;10.35;4.12;;;;;;;3.10;76.63;99783.02;1810841;79;21033;-40
2022/12/28 04:42:12;;;;;;;11.73;4.67;;;;;;;3.08;76.64;99796.48;1810737;79;21138;-40
2022/12/28 04:44:39;;;;;;;10.58;4.00;;;;;;;3.10;76.55;99799.66;1810848;79;21012;-40
2022/12/28 04:47:06;;;;;;;9.48;4.30;;;;;;;3.16;76.48;99799.78;1810904;79;20969;-40
2022/12/28 04:49:33;;;;;;;8.53;4.30;;;;;;;3.21;76.50;99802.36;1810601;78;20909;-41
2022/12/28 04:52:01;;;;;;;11.78;4.15;;;;;;;3.18;76.55;99802.43;1810925;79;21037;-41
2022/12/28 04:54:28;;;;;;;11.00;4.50;;;;;;;3.14;76.68;99804.67;1810932;79;21224;-41
2022/12/28 04:56:55;;;;;;;8.65;4.12;;;;;;;3.10;76.89;99798.33;1810847;79;20945;-41
2022/12/28 04:59:22;;;;;;;8.28;4.25;;;;;;;3.04;76.96;99807.80;1810661;79;21452;-41
2022/12/28 05:01:48;;;;;;;8.35;3.95;;;;;;;3.10;76.87;99806.36;1810819;79;21060;-41
2022/12/28 05:04:15;;;;;;;9.08;4.10;;;;;;;3.13;76.79;99807.09;1811162;79;21020;-41
2022/12/28 05:06:41;;;;;;;7.65;4.20;;;;;;;3.11;76.94;99806.59;1811045;79;21230;-41
2022/12/28 05:09:08;;;;;;;10.13;4.50;;;;;;;3.12;77.06;99810.86;1811088;79;21944;-41
2022/12/28 05:11:35;;;;;;;10.40;4.30;;;;;;;3.09;76.98;99812.80;1811051;79;21510;-41
2022/12/28 05:14:02;;;;;;;5.95;3.72;;;;;;;3.04;77.16;99811.81;1811053;79;21606;-41
2022/12/28 05:16:30;;;;;;;6.20;3.58;;;;;;;3.06;77.25;99813.64;1810939;79;20972;-41
2022/12/28 05:18:57;;;;;;;6.72;4.20;;;;;;;3.05;77.31;99812.59;1811174;79;21123;-41
2022/12/28 05:21:26;;;;;;;8.63;4.00;;;;;;;2.99;77.54;99815.14;1810670;79;21518;-41
2022/12/28 05:23:53;;;;;;;9.30;4.12;;;;;;;2.96;77.68;99821.87;1811333;79;21020;-41
2022/12/28 05:26:23;;;;;;;6.92;4.10;;;;;;;3.00;77.77;99821.52;1810921;79;21072;-41
2022/12/28 05:28:49;;;;;;;9.33;4.30;;;;;;;3.06;77.59;99830.25;1811586;79;20933;-41
2022/12/28 05:31:18;;;;;;;8.65;4.37;;;;;;;3.11;77.34;99834.71;1811123;79;21314;-41
2022/12/28 05:33:46;;;;;;;9.03;4.30;;;;;;;3.09;77.37;99841.73;1811685;79;21000;-41
2022/12/28 05:36:19;;;;;;;13.72;4.62;;;;;;;3.05;77.15;99840.17;1811019;79;20949;-41
2022/12/28 05:38:45;;;;;;;11.15;4.50;;;;;;;3.00;77.03;99841.60;1811060;79;20964;-41
2022/12/28 05:41:18;;;;;;;9.55;4.40;;;;;;;3.01;76.96;99849.09;1811193;79;20977;-41
2022/12/28 05:43:45;;;;;;;8.05;4.00;;;;;;;3.03;76.71;99845.05;1811474;79;21175;-41
2022/12/28 05:46:15;;;;;;;8.53;4.03;;;;;;;3.00;76.47;99842.17;1811325;79;21004;-41
2022/12/28 05:48:42;;;;;;;7.42;4.05;;;;;;;2.95;76.39;99844.38;1811269;79;20942;-41
2022/12/28 05:51:13;;;;;;;7.25;3.92;;;;;;;2.91;76.28;99850.08;1811111;78;21021;-41
2022/12/28 05:53:40;;;;;;;7.95;3.52;;;;;;;2.84;76.25;99856.39;1811136;79;21873;-41
2022/12/28 05:56:16;;;;;;;8.18;4.20;;;;;;;2.81;76.23;99856.97;1810893;79;23090;-41
2022/12/28 05:58:46;;;;;;;10.30;4.12;;;;;;;2.80;76.23;99858.08;1811209;79;20980;-41
2022/12/28 06:01:18;;;;;;;9.50;4.47;;;;;;;2.77;76.32;99864.00;1810980;79;21605;-41
2022/12/28 06:03:45;;;;;;;7.15;4.05;;;;;;;2.73;76.42;99865.69;1810973;79;20913;-41
2022/12/28 06:06:15;;;;;;;11.40;4.42;;;;;;;2.69;76.51;99871.38;1810997;79;20986;-41
2022/12/28 06:08:42;;;;;;;;;;;;;;;2.69;76.53;99875.40;1813909;79;21186;-41
2022/12/28 06:11:15;;;;;;;9.95;4.33;;;;;;;2.70;76.53;99876.20;1810833;79;20110;-41
2022/12/28 06:13:43;;;;;;;14.68;5.22;;;;;;;2.61;76.93;99884.12;1811173;79;21004;-41
2022/12/28 06:16:14;;;;;;;9.88;4.40;;;;;;;2.60;77.07;99890.55;1811096;79;21013;-41
2022/12/28 06:18:41;;;;;;;9.48;4.70;;;;;;;2.58;77.18;99906.09;1811060;79;21537;-41
2022/12/28 06:21:19;;;;;;;7.97;4.53;;;;;;;2.55;77.36;99909.37;1811025;79;21243;-41
2022/12/28 06:23:45;;;;;;;9.50;4.28;;;;;;;2.56;77.47;99912.30;1811095;79;20989;-41
2022/12/28 06:26:16;;;;;;;10.63;4.30;;;;;;;2.62;77.47;99919.94;1811286;79;20960;-41
2022/12/28 06:28:42;;;;;;;9.70;5.08;;;;;;;2.70;77.38;99920.38;1810278;79;21000;-41
2022/12/28 06:31:17;;;;;;;12.55;5.42;;;;;;;2.70;77.34;99921.17;1811139;79;21025;-41
2022/12/28 06:33:44;;;;;;;11.33;5.30;;;;;;;2.69;77.34;99926.27;1811462;79;21119;-40
2022/12/28 06:36:18;;;;;;;8.53;4.37;;;;;;;2.67;77.25;99936.45;1810999;79;20926;-41
2022/12/28 06:38:45;;;;;;;9.28;4.70;;;;;;;2.66;77.33;99932.76;1811266;79;21008;-41
2022/12/28 06:41:13;;;;;;;9.53;4.80;;;;;;;2.72;77.15;99931.56;1811007;79;20976;-41
2022/12/28 06:43:41;;;;;;;6.85;4.33;;;;;;;2.72;77.22;99936.38;1811151;79;20960;-41
2022/12/28 06:46:08;;;;;;;10.80;5.30;;;;;;;2.72;77.27;99937.72;1810935;79;21169;-41
2022/12/28 06:48:35;;;;;;;12.93;5.03;;;;;;;2.72;77.03;99936.38;1783778;79;20913;-41
2022/12/28 06:51:10;;;;;;;9.88;4.60;;;;;;;2.70;76.92;99939.91;1820668;78;20976;-41
2022/12/28 06:53:37;;;;;;;9.25;4.40;;;;;;;2.70;76.74;99942.59;1825660;78;21510;-41
2022/12/28 06:56:11;;;;;;;10.08;4.25;;;;;;;2.77;76.54;99948.88;1825716;78;21023;-41
2022/12/28 06:58:38;;;;;;;9.03;4.30;;;;;;;2.80;76.46;99953.13;1825615;78;21205;-41
2022/12/28 07:01:11;;;;;;;9.35;4.67;;;;;;;2.78;76.37;99955.29;1825403;78;21573;-41
2022/12/28 07:03:37;;;;;;;10.32;4.85;;;;;;;2.76;76.28;99958.80;1825529;78;21522;-41
2022/12/28 07:06:05;;;;;;;10.82;4.90;;;;;;;2.75;76.25;99952.41;1825545;78;20913;-41
2022/12/28 07:08:32;;;;;;;10.03;4.50;;;;;;;2.74;76.24;99962.33;1825663;78;21648;-41
2022/12/28 07:11:14;;;;;;;10.58;4.05;;;;;;;2.78;76.19;99961.98;1825750;78;21137;-41
2022/12/28 07:13:40;;;;;;;12.82;4.95;;;;;;;2.82;76.09;99964.86;1825768;78;20964;-41
2022/12/28 07:16:15;;;;;;;11.25;4.78;;;;;;;2.79;76.17;99972.16;1825872;78;21487;-41
2022/12/28 07:18:42;;;;;;;10.60;4.55;;;;;;;2.76;76.12;99970.84;1825772;78;20964;-41
2022/12/28 07:21:16;;;;;;;11.88;4.50;;;;;;;2.72;76.20;99975.19;1825791;78;21536;-41
2022/12/28 07:23:44;;;;;;;12.65;4.72;;;;;;;2.70;76.36;99974.71;1825577;78;21109;-41
2022/12/28 07:26:13;;;;;;;12.23;4.40;;;;;;;2.75;76.27;99972.49;1825806;78;21785;-41
2022/12/28 07:28:43;;;;;;;11.08;5.03;;;;;;;2.78;76.27;99972.70;1825619;78;21068;-41
2022/12/28 07:31:18;;;;;;;10.50;4.80;;;;;;;2.77;76.19;99974.31;1824683;78;21003;-41
2022/12/28 07:33:45;;;;;;;9.78;4.55;;;;;;;2.77;76.30;99981.81;1825476;78;21016;-41
2022/12/28 07:36:16;;;;;;;11.75;4.15;;;;;;;2.78;76.14;99980.73;1825606;78;21125;-41
2022/12/28 07:38:42;;;;;;;9.77;4.60;;;;;;;2.81;75.85;99977.45;1826038;78;21276;-41
2022/12/28 07:41:15;;;;;;;9.53;4.62;;;;;;;2.91;75.52;99982.64;1825528;78;21027;-41
2022/12/28 07:43:44;;;;;;;11.38;4.20;;;;;;;2.97;75.26;99980.14;1825392;78;21502;-41
2022/12/28 07:46:19;;;;;;;11.57;4.20;;;;;;;3.00;75.06;99978.20;1825658;78;20945;-41
2022/12/28 07:48:46;;;;;;;11.53;4.12;;;;;;;3.05;75.05;99982.13;1825817;78;21811;-41
2022/12/28 07:51:15;;;;;;;10.50;4.15;;;;;;;3.09;74.15;99984.24;1825696;78;21003;-41
2022/12/28 07:53:44;;;;;;;9.00;4.28;;;;;;;3.13;73.99;99985.23;1825813;78;20992;-41
2022/12/28 07:56:11;;;;;;;8.70;4.12;;;;;;;3.18;73.44;99980.59;1825898;78;21619;-41
2022/12/28 07:58:38;;;;;;;10.23;4.33;;;;;;;3.27;73.25;99987.39;1825782;78;21031;-41
2022/12/28 08:01:09;;;;;;;9.53;3.77;;;;;;;3.33;72.95;99980.86;1825792;78;21280;-41
2022/12/28 08:03:36;;;;;;;9.28;4.15;;;;;;;3.34;72.32;99979.78;1825627;78;20929;-41
2022/12/28 08:06:13;;;;;;;13.13;4.50;;;;;;;3.38;72.10;99983.45;1825536;78;20995;-41
2022/12/28 08:08:42;;;;;;;9.43;4.00;;;;;;;3.42;71.74;99993.82;1824360;78;21034;-41
2022/12/28 08:11:15;;;;;;;11.20;3.95;;;;;;;3.46;71.09;99987.57;1825567;78;21035;-41
2022/12/28 08:13:45;;;;;;;9.65;3.98;;;;;;;3.57;70.42;99998.90;1825455;78;21104;-41
2022/12/28 08:16:13;;;;;;;8.03;3.75;;;;;;;3.69;70.16;99995.70;1825691;78;20929;-41
2022/12/28 08:18:40;;;;;;;11.53;4.30;;;;;;;3.78;69.95;99994.72;1825842;78;21055;-41
2022/12/28 08:21:10;;;;;;;11.05;4.00;;;;;;;3.88;69.69;100002.56;1825544;78;21090;-41
2022/12/28 08:23:39;;;;;;;11.70;4.10;;;;;;;3.98;69.20;99997.53;1825928;78;20960;-41
2022/12/28 08:26:18;;;;;;;8.58;3.75;;;;;;;4.07;68.72;100002.98;1825609;78;21206;-41
2022/12/28 08:28:45;;;;;;;8.77;3.80;;;;;;;4.18;68.21;99997.66;1825781;78;20913;-41
2022/12/28 08:31:15;;;;;;;10.28;3.60;;;;;;;4.25;67.28;99994.83;1825572;78;21641;-41
2022/12/28 08:33:42;;;;;;;5.70;3.35;;;;;;;4.30;67.16;99992.03;1825473;78;21003;-41
2022/12/28 08:36:09;;;;;;;10.45;3.67;;;;;;;4.37;66.24;99995.08;1825664;78;21015;-41
2022/12/28 08:38:38;;;;;;;10.08;3.50;;;;;;;4.45;65.98;99992.23;1825503;78;21172;-41
2022/12/28 08:41:06;;;;;;;6.90;3.08;;;;;;;4.50;65.37;100002.86;1825654;78;20985;-41
2022/12/28 08:43:34;;;;;;;9.18;3.60;;;;;;;4.51;65.69;100007.66;1825846;78;20975;-41
2022/12/28 08:46:04;;;;;;;11.57;4.58;;;;;;;4.53;65.52;100000.11;1825726;78;20992;-41
2022/12/28 08:48:31;;;;;;;8.08;3.90;;;;;;;4.58;65.44;100017.45;1825562;78;21047;-41
2022/12/28 08:51:03;;;;;;;9.50;4.22;;;;;;;4.66;65.42;100010.00;1825518;78;23077;-41
2022/12/28 08:55:47;;;;;;;6.25;3.42;;;;;;;4.79;64.09;100008.59;1808943;77;22512;-40
2022/12/28 08:58:15;;;;;;;13.98;4.15;;;;;;;4.75;64.70;100011.65;1761267;81;20969;-40
2022/12/28 09:00:41;;;;;;;10.32;3.62;;;;;;;4.86;64.07;100007.38;1761219;80;21098;-40
2022/12/28 09:03:08;;;;;;;10.23;3.52;;;;;;;4.92;63.38;100017.71;1761221;80;21661;-40
2022/12/28 09:05:38;;;;;;;10.68;3.60;;;;;;;4.93;63.50;100009.10;1761012;80;20972;-40
2022/12/28 09:08:05;;;;;;;6.83;3.30;;;;;;;4.97;63.15;100008.73;1760730;81;20995;-40
2022/12/28 09:10:32;;;;;;;10.38;3.90;;;;;;;5.07;63.03;100011.17;1760770;81;21032;-40
2022/12/28 09:12:59;;;;;;;9.70;3.85;;;;;;;5.13;62.77;100015.33;1760826;81;22111;-40
2022/12/28 09:15:26;;;;;;;7.30;3.47;;;;;;;5.12;62.08;100006.47;1760709;81;20948;-40
2022/12/28 09:17:53;;;;;;;7.10;3.60;;;;;;;5.05;61.69;100019.53;1760801;81;21039;-40
2022/12/28 09:20:19;;;;;;;7.50;3.45;;;;;;;5.01;61.72;100017.77;1760722;81;21537;-40
2022/12/28 09:22:47;;;;;;;9.85;3.05;;;;;;;4.97;61.60;100024.86;1760725;81;21038;-40
2022/12/28 09:25:14;;;;;;;8.75;3.50;;;;;;;5.01;62.22;100015.08;1760806;81;21230;-40
2022/12/28 09:27:40;;;;;;;9.35;3.17;;;;;;;5.09;61.89;100017.02;1760657;81;20984;-40
2022/12/28 09:30:09;;;;;;;11.10;3.72;;;;;;;5.18;61.33;100013.28;1760743;81;21569;-40
2022/12/28 09:32:36;;;;;;;7.17;3.20;;;;;;;5.21;60.30;100017.27;1761111;81;20988;-40
2022/12/28 09:35:04;;;;;;;12.63;3.45;;;;;;;5.25;60.06;100019.58;1760643;81;21510;-40
2022/12/28 09:37:30;;;;;;;9.78;3.52;;;;;;;5.31;60.63;100026.41;1760729;81;21205;-40
2022/12/28 09:39:57;;;;;;;11.90;2.80;;;;;;;5.39;58.96;100030.23;1760833;81;21031;-40
2022/12/28 09:42:27;;;;;;;7.22;3.02;;;;;;;5.41;56.33;100022.12;1760664;81;21020;-40
2022/12/28 09:45:06;;;;;;;8.63;3.17;;;;;;;5.43;57.14;100027.97;1761018;81;21100;-40
2022/12/28 09:47:46;;;;;;;7.08;3.02;;;;;;;5.46;57.41;100026.03;1761181;81;20968;-40
2022/12/28 09:50:28;;;;;;;7.25;3.27;;;;;;;5.54;57.89;100023.92;1761231;81;21031;-40
2022/12/28 09:53:06;;;;;;;7.37;3.10;;;;;;;5.70;57.85;100028.34;1760917;81;21003;-40
2022/12/28 09:55:35;;;;;;;10.35;3.20;;;;;;;5.76;55.28;100017.66;1760810;79;21502;-40
2022/12/28 09:58:01;;;;;;;13.62;3.25;;;;;;;5.74;56.02;100029.85;1760886;81;21004;-40
2022/12/28 10:00:52;;;;;;;9.75;3.35;;;;;;;5.77;56.32;100025.98;1760936;81;21071;-40
2022/12/28 10:03:39;;;;;;;10.85;3.10;;;;;;;5.76;55.97;100027.66;1760890;81;23271;-40
2022/12/28 10:06:19;;;;;;;10.08;3.33;;;;;;;5.56;55.73;100032.48;1760845;81;21019;-41
2022/12/28 10:08:55;;;;;;;10.63;3.02;;;;;;;5.34;57.10;100042.47;1759196;81;21033;-40
2022/12/28 10:11:41;;;;;;;10.95;3.27;;;;;;;5.14;57.39;100044.56;1760155;81;21107;-40
2022/12/28 10:14:33;;;;;;;9.23;3.30;;;;;;;5.01;58.04;100041.95;1760279;81;21093;-40
2022/12/28 10:16:58;;;;;;;12.88;3.40;;;;;;;4.85;58.32;100044.74;1760215;80;21224;-40
2022/12/28 10:19:26;;;;;;;7.62;3.65;;;;;;;4.65;58.77;100042.77;1760071;81;21016;-40
2022/12/28 10:22:03;;;;;;;7.97;3.30;;;;;;;4.54;59.11;100045.45;1760344;81;20995;-40
2022/12/28 10:24:30;;;;;;;11.53;3.67;;;;;;;4.43;59.68;100048.66;1760009;81;21242;-41
2022/12/28 10:26:58;;;;;;;7.45;3.15;;;;;;;4.31;60.51;100048.62;1760251;81;21007;-40
2022/12/28 10:29:25;;;;;;;9.05;3.50;;;;;;;4.25;61.28;100050.39;1760191;81;21193;-41
2022/12/28 10:32:11;;;;;;;10.85;3.65;;;;;;;4.23;61.63;100052.56;1760252;81;20905;-40
2022/12/28 10:34:37;;;;;;;9.48;3.40;;;;;;;4.21;62.08;100056.11;1759953;81;21514;-40
2022/12/28 10:37:11;;;;;;;9.60;3.50;;;;;;;4.23;62.57;100054.70;1704114;81;21008;-40
2022/12/28 10:39:38;;;;;;;16.27;3.90;;;;;;;4.28;62.89;100051.11;1759261;81;21012;-40
2022/12/28 10:42:04;;;;;;;15.60;3.47;;;;;;;4.24;63.01;100055.50;1760521;81;21645;-40
2022/12/28 10:44:34;;;;;;;10.55;3.40;;;;;;;4.21;63.08;100053.42;1760104;81;20956;-41
2022/12/28 10:47:30;;;;;;;10.63;3.40;;;;;;;4.12;63.46;100050.63;1760450;81;21012;-40
2022/12/28 10:49:56;;;;;;;8.23;3.52;;;;;;;4.08;63.95;100047.50;1758696;81;21035;-41
2022/12/28 10:52:24;;;;;;;9.28;3.62;;;;;;;4.03;63.82;100052.97;1760033;81;21553;-40
2022/12/28 10:54:50;;;;;;;7.10;3.08;;;;;;;4.00;62.18;100056.26;1758397;81;23148;-40
2022/12/28 10:57:20;;;;;;;7.95;3.15;;;;;;;3.92;61.48;100062.56;1754964;81;20976;-40
2022/12/28 10:59:48;;;;;;;11.45;2.90;;;;;;;3.85;60.73;100062.17;1753930;81;21543;-40
2022/12/28 11:02:31;;;;;;;7.85;2.87;;;;;;;3.84;61.13;100054.41;1755085;81;21053;-40
2022/12/28 11:05:03;;;;;;;7.20;2.42;;;;;;;3.88;61.19;100060.77;1755276;81;20996;-40
2022/12/28 11:07:34;;;;;;;8.08;3.12;;;;;;;3.94;61.04;100061.73;1755342;81;21179;-41
2022/12/28 11:10:26;;;;;;;8.70;3.20;;;;;;;4.07;60.49;100057.98;1754967;81;20995;-40
2022/12/28 11:12:57;;;;;;;9.93;2.70;;;;;;;4.21;60.17;100057.45;1755609;81;21549;-40
2022/12/28 11:15:26;;;;;;;;;;;;;;;4.39;59.27;100047.13;1811152;79;21526;-40
2022/12/28 11:18:02;;;;;;;7.17;2.67;;;;;;;4.53;59.49;100035.81;1808964;79;20173;-40
2022/12/28 11:20:35;;;;;;;7.08;2.77;;;;;;;4.77;58.90;100047.07;1800304;79;22197;-40
2022/12/28 11:23:05;;;;;;;7.90;2.65;;;;;;;4.99;58.26;100056.22;1808842;79;21486;-41
2022/12/28 11:25:34;;;;;;;5.87;2.40;;;;;;;5.03;56.82;100061.26;1808586;79;20952;-40
2022/12/28 11:28:12;;;;;;;5.40;2.50;;;;;;;4.93;56.08;100058.27;1776433;79;21057;-41
2022/12/28 11:30:39;;;;;;;7.22;2.50;;;;;;;4.81;57.05;100068.19;1808672;79;21513;-41
2022/12/28 11:33:08;;;;;;;7.97;2.98;;;;;;;4.69;57.86;100064.47;1808466;79;23033;-40
2022/12/28 11:35:37;;;;;;;6.62;3.47;;;;;;;4.58;58.43;100063.09;1808426;79;21009;-40
2022/12/28 11:38:05;;;;;;;10.13;3.22;;;;;;;4.45;58.61;100056.67;1808910;79;20945;-41
2022/12/28 11:40:47;;;;;;;6.30;2.80;;;;;;;4.36;59.10;100059.80;1808277;78;21451;-40
2022/12/28 11:43:42;;;;;;;5.50;2.80;;;;;;;4.24;59.59;100061.66;1808727;79;20973;-41
2022/12/28 11:46:13;;;;;;;9.08;3.00;;;;;;;4.16;60.01;100067.75;1806735;79;21252;-40
2022/12/28 11:48:59;;;;;;;5.42;2.70;;;;;;;4.09;60.39;100057.14;1782384;79;21442;-40
2022/12/28 11:51:32;;;;;;;7.08;2.87;;;;;;;4.06;60.59;100065.80;1808239;79;20961;-40
2022/12/28 11:54:19;;;;;;;8.28;2.90;;;;;;;4.04;61.19;100066.64;1808374;79;21029;-41
2022/12/28 11:56:52;;;;;;;9.28;3.00;;;;;;;4.04;61.09;100065.30;1831795;78;21020;-40
2022/12/28 11:59:25;;;;;;;7.33;2.98;;;;;;;4.03;61.27;100063.16;1832315;78;21128;-41
2022/12/28 12:02:03;;;;;;;7.78;2.92;;;;;;;4.04;61.19;100062.07;1832231;78;21018;-41
2022/12/28 12:04:34;;;;;;;6.25;3.10;;;;;;;4.03;60.91;100065.05;1832177;78;20896;-40
2022/12/28 12:07:05;;;;;;;4.67;2.70;;;;;;;3.99;60.61;100069.42;1832290;78;21569;-41
2022/12/28 12:09:39;;;;;;;9.78;2.70;;;;;;;3.94;60.87;100069.77;1832312;78;20932;-41
2022/12/28 12:12:20;;;;;;;6.90;2.92;;;;;;;3.91;61.03;100063.67;1832264;78;21225;-40
2022/12/28 12:14:58;;;;;;;8.55;3.17;;;;;;;3.90;61.14;100059.39;1832103;78;20936;-40
2022/12/28 12:17:46;;;;;;;10.23;2.87;;;;;;;3.90;61.32;100066.10;1832210;78;20995;-40
2022/12/28 12:20:25;;;;;;;10.60;3.00;;;;;;;3.92;61.48;100073.28;1832288;78;20987;-40
2022/12/28 12:23:00;;;;;;;6.55;3.40;;;;;;;3.90;61.51;100070.13;1832415;78;22094;-41
2022/12/28 12:25:43;;;;;;;5.08;2.50;;;;;;;3.93;61.70;100068.72;1832442;78;21235;-41
2022/12/28 12:28:34;;;;;;;6.42;2.80;;;;;;;3.96;61.81;100072.70;1832234;78;20956;-40